SWA1101 KSLC-KLAS
Flight info
| Callsign | SWA1101 |
|---|---|
| Flight time | 0h 51m |
| Altitude | 30000 |
| Route | ZIONZ1 EHK STEWW CHOWW4 |
| Aircraft | B738/M-SDE2E3FGHIRWXY/LB1 |
Departure
| Time | 2026-05-07 16:36 |
|---|---|
| Airport | Salt Lake City International Airport (KSLC) |
Arrival
| Time | 2026-05-07 17:27 |
|---|---|
| Airport | Harry Reid International Airport (KLAS) |
| Time | Latitude | Longitude | Altitude | Speed | Heading |
|---|---|---|---|---|---|
| 2026-05-07 16:09 | 40.78833 | -111.98712 | 4227 ft | 0 kts | 354° |
| 2026-05-07 16:23 | 40.78821 | -111.98711 | 4226 ft | 2 kts | 354° |
| 2026-05-07 16:24 | 40.78806 | -111.98708 | 4226 ft | 2 kts | 354° |
| 2026-05-07 16:24 | 40.78791 | -111.98707 | 4226 ft | 2 kts | 354° |
| 2026-05-07 16:24 | 40.78776 | -111.98703 | 4226 ft | 2 kts | 330° |
| 2026-05-07 16:24 | 40.78765 | -111.98690 | 4226 ft | 2 kts | 303° |
| 2026-05-07 16:25 | 40.78760 | -111.98672 | 4226 ft | 2 kts | 274° |
| 2026-05-07 16:25 | 40.78761 | -111.98653 | 4226 ft | 2 kts | 262° |
| 2026-05-07 16:25 | 40.78762 | -111.98644 | 4226 ft | 0 kts | 266° |
| 2026-05-07 16:28 | 40.78761 | -111.98671 | 4226 ft | 5 kts | 265° |
| 2026-05-07 16:28 | 40.78756 | -111.98745 | 4226 ft | 10 kts | 265° |
| 2026-05-07 16:28 | 40.78749 | -111.98852 | 4226 ft | 11 kts | 265° |
| 2026-05-07 16:28 | 40.78741 | -111.98971 | 4226 ft | 14 kts | 265° |
| 2026-05-07 16:29 | 40.78731 | -111.99116 | 4226 ft | 16 kts | 264° |
| 2026-05-07 16:29 | 40.78723 | -111.99264 | 4226 ft | 15 kts | 270° |
| 2026-05-07 16:29 | 40.78744 | -111.99374 | 4225 ft | 12 kts | 334° |
| 2026-05-07 16:29 | 40.78856 | -111.99392 | 4225 ft | 23 kts | 354° |
| 2026-05-07 16:30 | 40.79067 | -111.99419 | 4225 ft | 35 kts | 354° |
| 2026-05-07 16:30 | 40.79316 | -111.99445 | 4225 ft | 36 kts | 355° |
| 2026-05-07 16:30 | 40.79563 | -111.99474 | 4227 ft | 34 kts | 354° |
| 2026-05-07 16:30 | 40.79799 | -111.99502 | 4228 ft | 33 kts | 355° |
| 2026-05-07 16:31 | 40.80026 | -111.99528 | 4228 ft | 32 kts | 355° |
| 2026-05-07 16:31 | 40.80250 | -111.99556 | 4227 ft | 32 kts | 354° |
| 2026-05-07 16:31 | 40.80473 | -111.99580 | 4225 ft | 31 kts | 355° |
| 2026-05-07 16:31 | 40.80670 | -111.99603 | 4225 ft | 25 kts | 355° |
| 2026-05-07 16:32 | 40.80822 | -111.99718 | 4225 ft | 16 kts | 259° |
| 2026-05-07 16:32 | 40.80779 | -111.99783 | 4225 ft | 14 kts | 229° |
| 2026-05-07 16:32 | 40.80749 | -111.99901 | 4225 ft | 12 kts | 238° |
| 2026-05-07 16:32 | 40.80669 | -111.99916 | 4225 ft | 12 kts | 174° |
| 2026-05-07 16:33 | 40.80530 | -111.99900 | 4225 ft | 35 kts | 175° |
| 2026-05-07 16:33 | 40.80297 | -111.99873 | 4225 ft | 24 kts | 175° |
| 2026-05-07 16:33 | 40.80141 | -111.99847 | 4228 ft | 20 kts | 151° |
| 2026-05-07 16:33 | 40.80152 | -111.99730 | 4228 ft | 14 kts | 38° |
| 2026-05-07 16:34 | 40.80222 | -111.99644 | 4227 ft | 17 kts | 4° |
| 2026-05-07 16:34 | 40.80392 | -111.99667 | 4225 ft | 28 kts | 355° |
| 2026-05-07 16:34 | 40.80588 | -111.99690 | 4225 ft | 26 kts | 356° |
| 2026-05-07 16:34 | 40.80695 | -111.99738 | 4225 ft | 13 kts | 287° |
| 2026-05-07 16:35 | 40.80689 | -111.99863 | 4224 ft | 14 kts | 253° |
| 2026-05-07 16:35 | 40.80611 | -111.99909 | 4225 ft | 14 kts | 173° |
| 2026-05-07 16:35 | 40.80376 | -111.99882 | 4225 ft | 66 kts | 174° |
| 2026-05-07 16:35 | 40.79676 | -111.99801 | 4225 ft | 133 kts | 175° |
| 2026-05-07 16:36 | 40.78565 | -111.99673 | 4325 ft | 180 kts | 174° |
| 2026-05-07 16:36 | 40.77373 | -111.99545 | 5225 ft | 175 kts | 176° |
| 2026-05-07 16:36 | 40.76143 | -111.99420 | 5909 ft | 180 kts | 175° |
| 2026-05-07 16:36 | 40.74919 | -111.99223 | 6597 ft | 181 kts | 174° |
| 2026-05-07 16:37 | 40.73602 | -111.98972 | 7008 ft | 200 kts | 174° |
| 2026-05-07 16:37 | 40.72169 | -111.98752 | 7415 ft | 218 kts | 176° |
| 2026-05-07 16:37 | 40.70574 | -111.98567 | 7813 ft | 240 kts | 177° |
| 2026-05-07 16:37 | 40.68864 | -111.98355 | 8317 ft | 258 kts | 177° |
| 2026-05-07 16:38 | 40.67032 | -111.98108 | 8791 ft | 276 kts | 177° |
| 2026-05-07 16:38 | 40.65061 | -111.97832 | 9331 ft | 292 kts | 177° |
| 2026-05-07 16:38 | 40.63020 | -111.97544 | 10022 ft | 301 kts | 177° |
| 2026-05-07 16:38 | 40.60888 | -111.97248 | 10632 ft | 313 kts | 177° |
| 2026-05-07 16:39 | 40.58668 | -111.96945 | 11090 ft | 330 kts | 177° |
| 2026-05-07 16:39 | 40.56360 | -111.96631 | 11547 ft | 346 kts | 177° |
| 2026-05-07 16:39 | 40.53894 | -111.96294 | 12066 ft | 360 kts | 177° |
| 2026-05-07 16:39 | 40.51387 | -111.95948 | 12819 ft | 365 kts | 177° |
| 2026-05-07 16:40 | 40.48881 | -111.95600 | 13529 ft | 371 kts | 176° |
| 2026-05-07 16:40 | 40.46299 | -111.95243 | 14246 ft | 376 kts | 177° |
| 2026-05-07 16:40 | 40.43667 | -111.94944 | 15022 ft | 380 kts | 179° |
| 2026-05-07 16:40 | 40.41038 | -111.94744 | 15668 ft | 386 kts | 180° |
| 2026-05-07 16:41 | 40.38328 | -111.94586 | 16380 ft | 390 kts | 181° |
| 2026-05-07 16:41 | 40.35628 | -111.94435 | 17032 ft | 396 kts | 181° |
| 2026-05-07 16:41 | 40.32866 | -111.94272 | 17711 ft | 400 kts | 180° |
| 2026-05-07 16:41 | 40.30081 | -111.94096 | 18353 ft | 405 kts | 180° |
| 2026-05-07 16:42 | 40.27240 | -111.93999 | 18959 ft | 410 kts | 184° |
| 2026-05-07 16:42 | 40.24398 | -111.94165 | 19556 ft | 412 kts | 188° |
| 2026-05-07 16:42 | 40.21531 | -111.94534 | 20134 ft | 415 kts | 190° |
| 2026-05-07 16:42 | 40.18638 | -111.94997 | 20717 ft | 419 kts | 191° |
| 2026-05-07 16:43 | 40.15763 | -111.95488 | 21289 ft | 424 kts | 191° |
| 2026-05-07 16:43 | 40.12815 | -111.95992 | 21820 ft | 428 kts | 191° |
| 2026-05-07 16:43 | 40.09832 | -111.96482 | 22288 ft | 434 kts | 191° |
| 2026-05-07 16:43 | 40.06824 | -111.96951 | 22851 ft | 437 kts | 190° |
| 2026-05-07 16:44 | 40.03783 | -111.97410 | 23370 ft | 442 kts | 190° |
| 2026-05-07 16:44 | 40.00763 | -111.97857 | 23922 ft | 445 kts | 190° |
| 2026-05-07 16:44 | 39.97665 | -111.98311 | 24471 ft | 449 kts | 190° |
| 2026-05-07 16:44 | 39.94548 | -111.98766 | 25028 ft | 452 kts | 190° |
| 2026-05-07 16:45 | 39.91399 | -111.99225 | 25547 ft | 456 kts | 189° |
| 2026-05-07 16:45 | 39.88227 | -111.99687 | 25996 ft | 460 kts | 189° |
| 2026-05-07 16:45 | 39.85062 | -112.00147 | 26399 ft | 464 kts | 189° |
| 2026-05-07 16:45 | 39.81825 | -112.00618 | 26820 ft | 468 kts | 189° |
| 2026-05-07 16:46 | 39.78571 | -112.01092 | 27235 ft | 471 kts | 189° |
| 2026-05-07 16:46 | 39.75329 | -112.01562 | 27669 ft | 473 kts | 189° |
| 2026-05-07 16:46 | 39.72033 | -112.02042 | 28052 ft | 477 kts | 189° |
| 2026-05-07 16:46 | 39.68773 | -112.02514 | 28433 ft | 480 kts | 189° |
| 2026-05-07 16:47 | 39.65442 | -112.02996 | 28815 ft | 483 kts | 189° |
| 2026-05-07 16:47 | 39.62093 | -112.03478 | 29195 ft | 486 kts | 189° |
| 2026-05-07 16:47 | 39.58728 | -112.03963 | 29587 ft | 488 kts | 189° |
| 2026-05-07 16:47 | 39.55328 | -112.04453 | 29977 ft | 491 kts | 189° |
| 2026-05-07 16:48 | 39.51950 | -112.04941 | 30226 ft | 495 kts | 189° |
| 2026-05-07 16:48 | 39.44963 | -112.05950 | 30235 ft | 513 kts | 189° |
| 2026-05-07 16:49 | 39.37907 | -112.06955 | 30239 ft | 512 kts | 188° |
| 2026-05-07 16:49 | 39.30850 | -112.07950 | 30239 ft | 511 kts | 188° |
| 2026-05-07 16:50 | 39.23753 | -112.08948 | 30249 ft | 512 kts | 188° |
| 2026-05-07 16:50 | 39.16725 | -112.10074 | 30247 ft | 509 kts | 192° |
| 2026-05-07 16:51 | 39.10070 | -112.12770 | 30252 ft | 501 kts | 208° |
| 2026-05-07 16:51 | 39.03911 | -112.16897 | 30256 ft | 499 kts | 213° |
| 2026-05-07 16:52 | 38.97934 | -112.21370 | 30244 ft | 498 kts | 214° |
| 2026-05-07 16:52 | 38.91944 | -112.25884 | 30256 ft | 500 kts | 214° |
| 2026-05-07 16:53 | 38.85916 | -112.30357 | 30260 ft | 499 kts | 213° |
| 2026-05-07 16:53 | 38.79920 | -112.34742 | 30273 ft | 499 kts | 213° |
| 2026-05-07 16:54 | 38.73875 | -112.39123 | 30280 ft | 498 kts | 213° |
| 2026-05-07 16:54 | 38.67828 | -112.43487 | 30288 ft | 498 kts | 213° |
| 2026-05-07 16:55 | 38.61788 | -112.47835 | 30305 ft | 498 kts | 213° |
| 2026-05-07 16:55 | 38.55748 | -112.52177 | 30326 ft | 500 kts | 213° |
| 2026-05-07 16:56 | 38.49686 | -112.56542 | 30327 ft | 499 kts | 213° |
| 2026-05-07 16:56 | 38.40626 | -112.63020 | 30318 ft | 500 kts | 212° |
| 2026-05-07 16:57 | 38.34576 | -112.67329 | 30305 ft | 501 kts | 212° |
| 2026-05-07 16:57 | 38.28509 | -112.71646 | 30288 ft | 500 kts | 212° |
| 2026-05-07 16:58 | 38.22422 | -112.75971 | 30296 ft | 502 kts | 212° |
| 2026-05-07 16:58 | 38.16353 | -112.80278 | 30294 ft | 501 kts | 212° |
| 2026-05-07 16:59 | 38.10249 | -112.84601 | 30287 ft | 501 kts | 212° |
| 2026-05-07 16:59 | 38.04176 | -112.88895 | 30287 ft | 502 kts | 211° |
| 2026-05-07 17:00 | 37.98077 | -112.93198 | 30287 ft | 502 kts | 211° |
| 2026-05-07 17:00 | 37.91980 | -112.97490 | 30284 ft | 502 kts | 211° |
| 2026-05-07 17:01 | 37.85905 | -113.01760 | 30284 ft | 502 kts | 211° |
| 2026-05-07 17:01 | 37.79808 | -113.06043 | 30268 ft | 502 kts | 212° |
| 2026-05-07 17:02 | 37.73882 | -113.10689 | 30254 ft | 500 kts | 216° |
| 2026-05-07 17:02 | 37.68200 | -113.15659 | 30235 ft | 499 kts | 218° |
| 2026-05-07 17:03 | 37.62515 | -113.20715 | 30253 ft | 499 kts | 217° |
| 2026-05-07 17:03 | 37.56848 | -113.25707 | 30261 ft | 500 kts | 217° |
| 2026-05-07 17:04 | 37.51137 | -113.30680 | 30268 ft | 500 kts | 217° |
| 2026-05-07 17:04 | 37.45381 | -113.35647 | 30271 ft | 499 kts | 217° |
| 2026-05-07 17:05 | 37.39659 | -113.40567 | 30263 ft | 499 kts | 217° |
| 2026-05-07 17:05 | 37.33968 | -113.45453 | 30254 ft | 500 kts | 217° |
| 2026-05-07 17:06 | 37.28232 | -113.50369 | 30247 ft | 500 kts | 216° |
| 2026-05-07 17:06 | 37.22297 | -113.54995 | 30221 ft | 501 kts | 210° |
| 2026-05-07 17:07 | 37.16047 | -113.58852 | 30205 ft | 502 kts | 206° |
| 2026-05-07 17:07 | 37.09698 | -113.62444 | 30182 ft | 502 kts | 205° |
| 2026-05-07 17:08 | 37.03333 | -113.66033 | 30171 ft | 497 kts | 205° |
| 2026-05-07 17:08 | 37.00230 | -113.67802 | 30110 ft | 484 kts | 205° |
| 2026-05-07 17:08 | 36.97219 | -113.69528 | 29735 ft | 476 kts | 205° |
| 2026-05-07 17:09 | 36.94217 | -113.71260 | 29302 ft | 469 kts | 206° |
| 2026-05-07 17:09 | 36.91314 | -113.72945 | 28869 ft | 464 kts | 206° |
| 2026-05-07 17:09 | 36.88370 | -113.74661 | 28315 ft | 460 kts | 206° |
| 2026-05-07 17:09 | 36.85497 | -113.76337 | 27718 ft | 458 kts | 206° |
| 2026-05-07 17:10 | 36.82604 | -113.78025 | 27104 ft | 456 kts | 206° |
| 2026-05-07 17:10 | 36.79759 | -113.79684 | 26500 ft | 454 kts | 206° |
| 2026-05-07 17:10 | 36.76893 | -113.81352 | 25877 ft | 453 kts | 206° |
| 2026-05-07 17:10 | 36.74045 | -113.83009 | 25252 ft | 451 kts | 206° |
| 2026-05-07 17:11 | 36.71207 | -113.84658 | 24630 ft | 449 kts | 206° |
| 2026-05-07 17:11 | 36.68397 | -113.86289 | 23998 ft | 446 kts | 206° |
| 2026-05-07 17:11 | 36.65609 | -113.87906 | 23381 ft | 444 kts | 206° |
| 2026-05-07 17:11 | 36.62809 | -113.89539 | 22769 ft | 441 kts | 207° |
| 2026-05-07 17:12 | 36.60181 | -113.91367 | 22169 ft | 436 kts | 215° |
| 2026-05-07 17:12 | 36.57839 | -113.93700 | 21566 ft | 431 kts | 226° |
| 2026-05-07 17:12 | 36.55830 | -113.96439 | 20950 ft | 427 kts | 232° |
| 2026-05-07 17:12 | 36.53982 | -113.99294 | 20323 ft | 425 kts | 234° |
| 2026-05-07 17:13 | 36.52202 | -114.02191 | 19703 ft | 423 kts | 235° |
| 2026-05-07 17:13 | 36.50425 | -114.05131 | 19070 ft | 420 kts | 235° |
| 2026-05-07 17:13 | 36.48695 | -114.07996 | 18453 ft | 418 kts | 235° |
| 2026-05-07 17:13 | 36.46952 | -114.10879 | 17823 ft | 416 kts | 235° |
| 2026-05-07 17:14 | 36.45210 | -114.13743 | 17134 ft | 416 kts | 234° |
| 2026-05-07 17:14 | 36.43464 | -114.16588 | 16500 ft | 414 kts | 234° |
| 2026-05-07 17:14 | 36.41736 | -114.19383 | 16104 ft | 405 kts | 234° |
| 2026-05-07 17:14 | 36.40043 | -114.22103 | 15946 ft | 391 kts | 234° |
| 2026-05-07 17:15 | 36.38393 | -114.24738 | 15554 ft | 385 kts | 234° |
| 2026-05-07 17:15 | 36.36749 | -114.27331 | 15010 ft | 378 kts | 233° |
| 2026-05-07 17:15 | 36.35155 | -114.29826 | 14538 ft | 369 kts | 233° |
| 2026-05-07 17:15 | 36.33580 | -114.32282 | 14087 ft | 359 kts | 233° |
| 2026-05-07 17:16 | 36.32053 | -114.34667 | 13638 ft | 351 kts | 233° |
| 2026-05-07 17:16 | 36.30553 | -114.37011 | 13195 ft | 344 kts | 233° |
| 2026-05-07 17:16 | 36.29087 | -114.39303 | 12771 ft | 337 kts | 233° |
| 2026-05-07 17:16 | 36.27649 | -114.41553 | 12345 ft | 330 kts | 233° |
| 2026-05-07 17:17 | 36.26226 | -114.43780 | 11916 ft | 324 kts | 233° |
| 2026-05-07 17:17 | 36.24853 | -114.45921 | 11513 ft | 319 kts | 233° |
| 2026-05-07 17:17 | 36.23470 | -114.48057 | 11095 ft | 318 kts | 233° |
| 2026-05-07 17:17 | 36.22083 | -114.50181 | 10684 ft | 316 kts | 233° |
| 2026-05-07 17:18 | 36.20703 | -114.52289 | 10270 ft | 312 kts | 233° |
| 2026-05-07 17:18 | 36.19365 | -114.54333 | 9948 ft | 304 kts | 233° |
| 2026-05-07 17:18 | 36.18056 | -114.56333 | 9803 ft | 293 kts | 233° |
| 2026-05-07 17:18 | 36.16765 | -114.58311 | 9404 ft | 294 kts | 233° |
| 2026-05-07 17:19 | 36.15500 | -114.60248 | 9043 ft | 287 kts | 233° |
| 2026-05-07 17:19 | 36.14262 | -114.62140 | 8985 ft | 279 kts | 233° |
| 2026-05-07 17:19 | 36.13052 | -114.63985 | 8867 ft | 271 kts | 233° |
| 2026-05-07 17:19 | 36.11887 | -114.65764 | 8566 ft | 263 kts | 232° |
| 2026-05-07 17:20 | 36.10757 | -114.67491 | 8301 ft | 253 kts | 232° |
| 2026-05-07 17:20 | 36.09683 | -114.69132 | 8194 ft | 246 kts | 232° |
| 2026-05-07 17:20 | 36.08597 | -114.70789 | 8120 ft | 248 kts | 232° |
| 2026-05-07 17:20 | 36.07671 | -114.72580 | 8047 ft | 244 kts | 250° |
| 2026-05-07 17:21 | 36.07347 | -114.74580 | 7997 ft | 236 kts | 268° |
| 2026-05-07 17:21 | 36.07314 | -114.76590 | 7690 ft | 234 kts | 272° |
| 2026-05-07 17:21 | 36.07331 | -114.78563 | 7350 ft | 227 kts | 272° |
| 2026-05-07 17:21 | 36.07341 | -114.80505 | 7042 ft | 226 kts | 272° |
| 2026-05-07 17:22 | 36.07343 | -114.82439 | 6735 ft | 225 kts | 272° |
| 2026-05-07 17:22 | 36.07345 | -114.84341 | 6433 ft | 223 kts | 272° |
| 2026-05-07 17:22 | 36.07350 | -114.86219 | 6135 ft | 213 kts | 272° |
| 2026-05-07 17:22 | 36.07353 | -114.87988 | 5869 ft | 201 kts | 272° |
| 2026-05-07 17:23 | 36.07355 | -114.89716 | 5590 ft | 200 kts | 272° |
| 2026-05-07 17:23 | 36.07358 | -114.91441 | 5322 ft | 200 kts | 271° |
| 2026-05-07 17:23 | 36.07360 | -114.93133 | 5059 ft | 199 kts | 271° |
| 2026-05-07 17:23 | 36.07361 | -114.94840 | 4796 ft | 199 kts | 271° |
| 2026-05-07 17:24 | 36.07363 | -114.96534 | 4536 ft | 198 kts | 271° |
| 2026-05-07 17:24 | 36.07364 | -114.98237 | 4275 ft | 198 kts | 271° |
| 2026-05-07 17:24 | 36.07365 | -114.99934 | 4016 ft | 197 kts | 271° |
| 2026-05-07 17:24 | 36.07366 | -115.01633 | 3757 ft | 196 kts | 271° |
| 2026-05-07 17:25 | 36.07367 | -115.03294 | 3505 ft | 193 kts | 271° |
| 2026-05-07 17:25 | 36.07366 | -115.04903 | 3275 ft | 180 kts | 271° |
| 2026-05-07 17:25 | 36.07365 | -115.06396 | 3040 ft | 168 kts | 271° |
| 2026-05-07 17:25 | 36.07365 | -115.07800 | 2827 ft | 163 kts | 270° |
| 2026-05-07 17:26 | 36.07366 | -115.09206 | 2614 ft | 164 kts | 271° |
| 2026-05-07 17:26 | 36.07371 | -115.10613 | 2399 ft | 163 kts | 270° |
| 2026-05-07 17:26 | 36.07366 | -115.11989 | 2219 ft | 160 kts | 270° |
| 2026-05-07 17:26 | 36.07365 | -115.13349 | 2085 ft | 155 kts | 270° |
| 2026-05-07 17:27 | 36.07364 | -115.14472 | 2113 ft | 89 kts | 269° |
| 2026-05-07 17:27 | 36.07400 | -115.14884 | 2126 ft | 27 kts | 291° |
| 2026-05-07 17:27 | 36.07470 | -115.15050 | 2131 ft | 16 kts | 302° |
| 2026-05-07 17:27 | 36.07549 | -115.15140 | 2133 ft | 14 kts | 326° |
| 2026-05-07 17:28 | 36.07650 | -115.15202 | 2133 ft | 18 kts | 334° |
| 2026-05-07 17:28 | 36.07757 | -115.15266 | 2133 ft | 13 kts | 343° |
| 2026-05-07 17:28 | 36.07805 | -115.15188 | 2130 ft | 14 kts | 89° |
| 2026-05-07 17:28 | 36.07800 | -115.15048 | 2124 ft | 17 kts | 92° |
| 2026-05-07 17:29 | 36.07790 | -115.14887 | 2119 ft | 19 kts | 95° |
| 2026-05-07 17:29 | 36.07877 | -115.14817 | 2115 ft | 17 kts | 2° |
| 2026-05-07 17:29 | 36.07983 | -115.14857 | 2114 ft | 14 kts | 332° |
| 2026-05-07 17:29 | 36.08064 | -115.14902 | 2114 ft | 12 kts | 338° |
| 2026-05-07 17:30 | 36.08140 | -115.14938 | 2114 ft | 10 kts | 350° |
| 2026-05-07 17:30 | 36.08189 | -115.14874 | 2110 ft | 11 kts | 70° |
| 2026-05-07 17:30 | 36.08205 | -115.14827 | 2108 ft | 0 kts | 66° |